Time;durP1;ratioP1;P1;durP2;ratioP2;P2;SDS_P1;SDS_P2;PMS_P1;PMS_P2;Temp;Humidity;BMP_temperature;BMP_pressure;BME280_temperature;BME280_humidity;BME280_pressure;Samples;Min_cycle;Max_cycle;Signal;HPM_P1;HPM_P2
2024/03/16 00:01:24;;;;;;;3.63;2.10;;;12.00;78.50;;;;;;5097723;28;20465;-67
2024/03/16 00:03:51;;;;;;;2.77;1.40;;;12.00;78.90;;;;;;5097622;28;20462;-67
2024/03/16 00:06:18;;;;;;;2.73;1.60;;;12.00;78.90;;;;;;5097474;28;20546;-67
2024/03/16 00:08:45;;;;;;;4.80;2.30;;;11.90;78.90;;;;;;5097389;28;20464;-67
2024/03/16 00:11:12;;;;;;;3.10;1.50;;;11.90;79.00;;;;;;5097367;28;20464;-68
2024/03/16 00:13:39;;;;;;;4.30;2.50;;;11.90;79.30;;;;;;5097328;28;20441;-67
2024/03/16 00:16:06;;;;;;;2.90;1.60;;;11.80;79.50;;;;;;5097082;28;20912;-67
2024/03/16 00:18:36;;;;;;;3.40;1.60;;;11.80;80.10;;;;;;5096870;28;20522;-67
2024/03/16 00:21:03;;;;;;;2.97;1.60;;;11.90;80.60;;;;;;5097588;28;20827;-67
2024/03/16 00:23:30;;;;;;;3.03;1.73;;;11.90;81.30;;;;;;5096892;28;20830;-67
2024/03/16 00:25:57;;;;;;;3.87;1.63;;;12.00;81.50;;;;;;5097039;28;20464;-67
2024/03/16 00:28:24;;;;;;;3.17;1.70;;;12.00;81.40;;;;;;5097156;28;20430;-67
2024/03/16 00:30:51;;;;;;;3.50;2.20;;;12.00;81.20;;;;;;5096972;28;20434;-67
2024/03/16 00:33:18;;;;;;;3.17;1.83;;;12.00;81.60;;;;;;5097021;28;20461;-67
2024/03/16 00:35:45;;;;;;;2.50;1.40;;;12.00;81.20;;;;;;5097007;28;20513;-67
2024/03/16 00:38:12;;;;;;;2.93;1.40;;;12.00;80.30;;;;;;5096696;28;20817;-67
2024/03/16 00:40:39;;;;;;;2.77;1.57;;;12.00;79.70;;;;;;5096519;28;20449;-67
2024/03/16 00:43:07;;;;;;;3.00;1.50;;;12.00;80.20;;;;;;5096502;28;20448;-67
2024/03/16 00:45:34;;;;;;;2.97;1.20;;;12.00;80.20;;;;;;5096790;28;20454;-67
2024/03/16 00:48:04;;;;;;;2.30;1.37;;;12.00;80.60;;;;;;5095926;28;20947;-67
2024/03/16 00:50:31;;;;;;;2.10;1.27;;;12.00;80.70;;;;;;5096861;28;20433;-67
2024/03/16 00:52:58;;;;;;;3.97;1.37;;;12.00;81.10;;;;;;5096716;28;20444;-68
2024/03/16 00:55:25;;;;;;;2.60;1.10;;;12.00;81.40;;;;;;5096802;28;20517;-67
2024/03/16 00:57:52;;;;;;;2.78;1.60;;;12.00;80.70;;;;;;5096495;28;20473;-67
2024/03/16 01:00:19;;;;;;;3.70;1.07;;;12.00;80.10;;;;;;5096596;28;20215;-67
2024/03/16 01:02:46;;;;;;;2.37;1.30;;;12.00;79.90;;;;;;5096151;28;20489;-67
2024/03/16 01:05:14;;;;;;;2.60;1.23;;;12.00;79.20;;;;;;5096629;28;20441;-67
2024/03/16 01:07:41;;;;;;;2.20;1.17;;;12.00;79.10;;;;;;5096412;28;20492;-67
2024/03/16 01:10:11;;;;;;;3.00;1.20;;;12.00;79.40;;;;;;5096249;28;20432;-67
2024/03/16 01:12:38;;;;;;;2.73;1.20;;;12.00;80.00;;;;;;5096661;28;20908;-67
2024/03/16 01:15:06;;;;;;;3.07;1.20;;;12.00;79.80;;;;;;5096554;28;20444;-67
2024/03/16 01:17:33;;;;;;;1.80;0.70;;;11.90;78.80;;;;;;5096266;28;20502;-67
2024/03/16 01:20:00;;;;;;;1.80;0.60;;;12.00;75.80;;;;;;5081843;28;20542;-67
2024/03/16 01:22:31;;;;;;;1.90;0.70;;;11.90;74.00;;;;;;5075888;28;20419;-67
2024/03/16 01:24:58;;;;;;;1.80;0.70;;;11.80;73.40;;;;;;5076406;28;20502;-67
2024/03/16 01:27:25;;;;;;;1.80;0.80;;;11.80;71.60;;;;;;5075613;28;21018;-67
2024/03/16 01:29:52;;;;;;;1.80;0.80;;;11.70;71.70;;;;;;5075844;28;20501;-67
2024/03/16 01:32:22;;;;;;;1.80;0.73;;;11.60;71.10;;;;;;5075857;28;20510;-67
2024/03/16 01:34:52;;;;;;;1.90;0.87;;;11.60;70.70;;;;;;5076319;28;20446;-67
2024/03/16 01:37:23;;;;;;;2.00;0.80;;;11.50;70.00;;;;;;5075487;28;20502;-67
2024/03/16 01:39:52;;;;;;;1.80;0.70;;;11.40;70.70;;;;;;5076374;28;20507;-67
2024/03/16 01:42:19;;;;;;;1.80;0.70;;;11.30;71.20;;;;;;5076049;28;20519;-67
2024/03/16 01:44:57;;;;;;;1.67;0.60;;;11.30;71.90;;;;;;5075429;28;20431;-67
2024/03/16 01:47:27;;;;;;;1.70;0.57;;;11.20;72.20;;;;;;5075576;28;20579;-66
2024/03/16 01:49:56;;;;;;;1.70;0.70;;;11.20;72.10;;;;;;5075624;28;20419;-66
2024/03/16 01:52:23;;;;;;;2.25;0.82;;;11.10;71.80;;;;;;5075860;28;20439;-66
2024/03/16 01:54:49;;;;;;;1.67;0.60;;;11.00;71.50;;;;;;5075572;28;20217;-67
2024/03/16 01:57:16;;;;;;;1.70;0.60;;;10.90;70.30;;;;;;5075556;28;20192;-66
2024/03/16 01:59:44;;;;;;;1.70;0.60;;;10.80;71.00;;;;;;5076936;28;20242;-67
2024/03/16 02:02:20;;;;;;;1.70;0.60;;;10.80;70.30;;;;;;5079531;28;20185;-67
2024/03/16 02:04:47;;;;;;;1.70;0.70;;;10.70;71.10;;;;;;5079331;28;20269;-66
2024/03/16 02:07:14;;;;;;;1.70;0.60;;;10.60;71.40;;;;;;5079259;28;20287;-67
2024/03/16 02:09:41;;;;;;;1.70;0.60;;;10.60;71.10;;;;;;5079642;28;20238;-67
2024/03/16 02:12:12;;;;;;;1.88;0.93;;;10.60;71.20;;;;;;5079245;28;20427;-66
2024/03/16 02:14:39;;;;;;;1.80;0.80;;;10.60;71.40;;;;;;5079541;28;20179;-66
2024/03/16 02:17:08;;;;;;;1.77;0.65;;;10.50;71.60;;;;;;5079048;28;20239;-67
2024/03/16 02:19:36;;;;;;;1.70;0.60;;;10.50;71.30;;;;;;5086334;28;20220;-66
2024/03/16 02:22:05;;;;;;;1.80;0.60;;;10.50;71.60;;;;;;5095770;28;20287;-66
2024/03/16 02:24:32;;;;;;;1.70;0.60;;;10.50;71.60;;;;;;5095781;28;20188;-67
2024/03/16 02:26:59;;;;;;;1.80;0.60;;;10.50;71.20;;;;;;5079146;28;20250;-67
2024/03/16 02:29:27;;;;;;;1.77;0.80;;;10.50;71.30;;;;;;5095927;28;20190;-66
2024/03/16 02:31:54;;;;;;;1.70;0.60;;;10.50;72.00;;;;;;5095806;28;20195;-67
2024/03/16 02:34:21;;;;;;;1.80;0.70;;;10.50;71.60;;;;;;5078750;28;20192;-67
2024/03/16 02:36:48;;;;;;;2.00;0.70;;;10.40;71.60;;;;;;5095561;28;20643;-66
2024/03/16 02:39:16;;;;;;;1.70;0.60;;;10.40;71.80;;;;;;5095634;28;20636;-66
2024/03/16 02:41:43;;;;;;;1.70;0.60;;;10.40;72.40;;;;;;5095958;28;20564;-66
2024/03/16 02:44:10;;;;;;;1.70;0.60;;;10.40;72.40;;;;;;5095715;28;20189;-66
2024/03/16 02:46:37;;;;;;;2.03;0.90;;;10.40;72.60;;;;;;5095097;28;20216;-66
2024/03/16 02:49:04;;;;;;;1.90;0.80;;;10.40;73.00;;;;;;5095251;28;20185;-67
2024/03/16 02:51:31;;;;;;;1.80;0.50;;;10.50;72.70;;;;;;5095189;28;20219;-66
2024/03/16 02:53:58;;;;;;;1.90;0.60;;;10.50;72.10;;;;;;5095549;28;20207;-66
2024/03/16 02:56:26;;;;;;;1.70;0.60;;;10.40;72.30;;;;;;5095567;28;20188;-66
2024/03/16 02:58:52;;;;;;;1.70;0.65;;;10.40;72.40;;;;;;5095438;28;20242;-66
2024/03/16 03:01:20;;;;;;;1.70;0.63;;;10.40;72.20;;;;;;5095342;28;20231;-66
2024/03/16 03:03:47;;;;;;;1.70;0.73;;;10.40;72.90;;;;;;5094975;28;20201;-67
2024/03/16 03:06:14;;;;;;;1.70;0.60;;;10.40;72.30;;;;;;5094921;28;20631;-66
2024/03/16 03:08:43;;;;;;;2.05;0.70;;;10.40;71.90;;;;;;5095099;28;20209;-67
2024/03/16 03:11:10;;;;;;;1.70;0.60;;;10.40;72.50;;;;;;5094637;28;20239;-66
2024/03/16 03:13:37;;;;;;;1.70;0.68;;;10.30;73.50;;;;;;5078426;28;20181;-67
2024/03/16 03:16:05;;;;;;;1.90;0.85;;;10.20;73.70;;;;;;5095175;28;20217;-66
2024/03/16 03:18:32;;;;;;;1.73;0.70;;;10.10;73.90;;;;;;5096371;28;20639;-67
2024/03/16 03:20:59;;;;;;;1.80;0.80;;;10.10;74.50;;;;;;5098223;28;20260;-66
2024/03/16 03:23:26;;;;;;;1.70;0.60;;;10.10;74.80;;;;;;5098463;28;20185;-66
2024/03/16 03:25:53;;;;;;;1.70;0.60;;;10.00;75.30;;;;;;5098111;28;20390;-66
2024/03/16 03:28:20;;;;;;;1.70;0.60;;;9.90;77.00;;;;;;5098289;28;20268;-66
2024/03/16 03:30:48;;;;;;;1.70;0.50;;;9.80;77.00;;;;;;5098354;28;20267;-66
2024/03/16 03:33:15;;;;;;;1.80;0.60;;;9.80;77.10;;;;;;5098066;28;20192;-66
2024/03/16 03:35:43;;;;;;;1.70;0.68;;;9.80;77.20;;;;;;5097871;28;20196;-66
2024/03/16 03:38:11;;;;;;;1.70;0.73;;;9.70;77.70;;;;;;5098186;28;20234;-66
2024/03/16 03:40:38;;;;;;;1.65;0.60;;;9.70;78.30;;;;;;5098166;28;20541;-67
2024/03/16 03:43:05;;;;;;;1.70;0.60;;;9.70;78.10;;;;;;5098114;28;20194;-66
2024/03/16 03:45:49;;;;;;;1.80;0.60;;;9.70;78.30;;;;;;5098111;28;20188;-66
2024/03/16 03:48:35;;;;;;;1.70;0.70;;;9.70;78.10;;;;;;5100796;28;20200;-66
2024/03/16 03:51:03;;;;;;;1.90;0.70;;;9.70;77.50;;;;;;5100710;28;20657;-66
2024/03/16 03:53:31;;;;;;;1.80;0.70;;;9.70;76.90;;;;;;5097897;28;20180;-66
2024/03/16 03:55:59;;;;;;;1.77;0.70;;;9.70;77.10;;;;;;5097500;28;20195;-66
2024/03/16 03:58:27;;;;;;;1.80;0.63;;;9.70;77.40;;;;;;5098040;28;20279;-66
2024/03/16 04:00:54;;;;;;;1.70;0.73;;;9.70;78.00;;;;;;5097804;28;20184;-66
2024/03/16 04:03:21;;;;;;;1.70;0.60;;;9.70;76.60;;;;;;5097605;28;20215;-67
2024/03/16 04:05:51;;;;;;;1.98;0.75;;;9.70;76.10;;;;;;5097305;28;20185;-67
2024/03/16 04:08:18;;;;;;;1.80;0.70;;;9.70;76.30;;;;;;5097523;28;20294;-66
2024/03/16 04:10:45;;;;;;;1.75;0.77;;;9.80;75.70;;;;;;5097225;28;20192;-66
2024/03/16 04:13:12;;;;;;;1.70;0.50;;;9.80;75.70;;;;;;5097432;28;20261;-66
2024/03/16 04:15:39;;;;;;;1.75;0.60;;;9.80;75.80;;;;;;5097035;28;20627;-67
2024/03/16 04:18:06;;;;;;;1.80;0.70;;;9.90;75.70;;;;;;5096995;28;20271;-66
2024/03/16 04:20:33;;;;;;;1.70;0.60;;;9.90;75.80;;;;;;5097025;28;20241;-66
2024/03/16 04:23:01;;;;;;;2.30;0.70;;;9.90;75.60;;;;;;5096370;28;20237;-66
2024/03/16 04:25:28;;;;;;;1.80;0.60;;;10.00;74.50;;;;;;5096999;28;20196;-66
2024/03/16 04:27:56;;;;;;;2.10;0.70;;;10.00;74.50;;;;;;5097179;28;20208;-67
2024/03/16 04:30:23;;;;;;;1.88;0.75;;;10.00;74.30;;;;;;5097184;28;20770;-66
2024/03/16 04:32:50;;;;;;;2.00;0.70;;;10.00;74.60;;;;;;5097201;28;20253;-66
2024/03/16 04:35:17;;;;;;;1.67;0.60;;;10.00;74.50;;;;;;5096722;28;20539;-67
2024/03/16 04:37:44;;;;;;;1.70;0.60;;;10.00;74.50;;;;;;5097049;28;20266;-66
2024/03/16 04:40:11;;;;;;;3.17;0.68;;;10.10;74.40;;;;;;5097012;28;20200;-66
2024/03/16 04:42:39;;;;;;;1.90;0.90;;;10.10;73.70;;;;;;5097044;28;20249;-66
2024/03/16 04:45:06;;;;;;;1.70;0.70;;;10.10;73.20;;;;;;5096860;28;20188;-66
2024/03/16 04:47:33;;;;;;;1.90;0.70;;;10.00;73.60;;;;;;5096806;28;20219;-67
2024/03/16 04:50:00;;;;;;;4.15;0.77;;;10.00;74.10;;;;;;5096663;28;20216;-66
2024/03/16 04:52:27;;;;;;;1.75;0.73;;;9.90;75.40;;;;;;5096365;28;20635;-66
2024/03/16 04:54:54;;;;;;;1.92;0.88;;;9.80;76.00;;;;;;5096656;28;20188;-66
2024/03/16 04:57:21;;;;;;;1.70;0.68;;;9.80;76.20;;;;;;5096648;28;20188;-67
2024/03/16 04:59:48;;;;;;;1.77;0.73;;;9.80;76.10;;;;;;5096329;28;20192;-66
2024/03/16 05:02:15;;;;;;;1.70;0.60;;;9.80;76.50;;;;;;5096531;28;20217;-67
2024/03/16 05:04:42;;;;;;;1.80;0.80;;;9.80;75.80;;;;;;5096439;28;20188;-67
2024/03/16 05:07:09;;;;;;;2.47;1.02;;;9.90;75.60;;;;;;5096504;28;20576;-66
2024/03/16 05:09:36;;;;;;;1.90;0.85;;;9.90;75.40;;;;;;5096345;28;20192;-66
2024/03/16 05:12:04;;;;;;;1.90;0.70;;;9.90;75.30;;;;;;5096407;28;20239;-67
2024/03/16 05:14:31;;;;;;;2.00;0.70;;;9.90;74.70;;;;;;5096270;28;20279;-67
2024/03/16 05:16:58;;;;;;;1.98;0.70;;;9.90;74.80;;;;;;5096293;28;20634;-67
2024/03/16 05:19:26;;;;;;;2.13;0.85;;;10.00;73.30;;;;;;5096097;28;20216;-66
2024/03/16 05:21:53;;;;;;;2.30;0.80;;;9.90;74.40;;;;;;5096331;28;20257;-66
2024/03/16 05:24:20;;;;;;;1.80;0.77;;;9.90;74.10;;;;;;5095890;28;20184;-66
2024/03/16 05:26:47;;;;;;;2.00;0.73;;;9.90;73.90;;;;;;5095813;28;20211;-66
2024/03/16 05:29:14;;;;;;;2.10;0.80;;;9.90;73.90;;;;;;5095696;28;20253;-67
2024/03/16 05:31:42;;;;;;;2.03;0.80;;;9.90;74.30;;;;;;5095892;28;20592;-67
2024/03/16 05:34:09;;;;;;;3.03;1.98;;;9.90;74.30;;;;;;5095447;28;20194;-67
2024/03/16 05:36:36;;;;;;;1.80;0.60;;;10.00;72.40;;;;;;5095837;28;20223;-67
2024/03/16 05:39:05;;;;;;;2.88;0.70;;;10.00;72.20;;;;;;5095751;28;20272;-66
2024/03/16 05:41:32;;;;;;;2.00;0.80;;;10.00;72.20;;;;;;5096093;28;20185;-66
2024/03/16 05:43:59;;;;;;;2.00;0.90;;;10.00;72.20;;;;;;5095742;28;20212;-67
2024/03/16 05:46:28;;;;;;;1.90;0.80;;;10.10;72.00;;;;;;5095815;28;20216;-66
2024/03/16 05:48:56;;;;;;;1.95;0.82;;;10.10;71.80;;;;;;5095564;28;20290;-67
2024/03/16 05:51:24;;;;;;;2.75;1.45;;;10.20;71.60;;;;;;5095879;28;20195;-67
2024/03/16 05:53:52;;;;;;;2.50;1.30;;;10.20;71.60;;;;;;5095785;28;20180;-66
2024/03/16 05:56:19;;;;;;;4.00;1.77;;;10.20;71.60;;;;;;5096105;28;20623;-68
2024/03/16 05:58:46;;;;;;;1.95;0.75;;;10.20;71.60;;;;;;5095623;28;20231;-67
2024/03/16 06:01:13;;;;;;;1.80;0.70;;;10.20;71.80;;;;;;5095589;28;20192;-67
2024/03/16 06:03:40;;;;;;;2.38;0.80;;;10.20;71.70;;;;;;5095221;28;20192;-67
2024/03/16 06:06:07;;;;;;;2.28;0.80;;;10.20;71.30;;;;;;5095680;28;20268;-66
2024/03/16 06:08:36;;;;;;;3.08;0.80;;;10.20;72.30;;;;;;5095217;28;20244;-67
2024/03/16 06:11:03;;;;;;;2.10;0.90;;;10.20;71.80;;;;;;5095398;28;20215;-66
2024/03/16 06:13:30;;;;;;;4.50;0.90;;;10.20;71.80;;;;;;5095377;28;20230;-66
2024/03/16 06:15:57;;;;;;;1.95;0.70;;;10.10;71.80;;;;;;5095104;28;20188;-67
2024/03/16 06:18:24;;;;;;;3.47;0.90;;;10.10;71.60;;;;;;5094863;28;20192;-66
2024/03/16 06:20:52;;;;;;;2.10;0.70;;;10.10;71.30;;;;;;5095140;28;20180;-66
2024/03/16 06:23:19;;;;;;;2.13;0.88;;;10.10;71.50;;;;;;5095130;28;20658;-66
2024/03/16 06:25:49;;;;;;;1.80;0.70;;;10.20;70.80;;;;;;5095400;28;20188;-66
2024/03/16 06:28:19;;;;;;;1.95;0.95;;;10.20;71.10;;;;;;5095673;28;20254;-67
2024/03/16 06:30:48;;;;;;;3.30;1.00;;;10.20;71.20;;;;;;5095620;28;20284;-67
2024/03/16 06:33:27;;;;;;;1.90;0.80;;;10.20;71.60;;;;;;5095879;28;20522;-67
2024/03/16 06:35:54;;;;;;;3.20;1.00;;;10.20;72.50;;;;;;5096748;28;20180;-66
2024/03/16 06:38:22;;;;;;;1.98;1.05;;;10.30;72.40;;;;;;5095031;28;20192;-66
2024/03/16 06:40:49;;;;;;;1.80;0.70;;;10.50;72.00;;;;;;5095160;28;20222;-66
2024/03/16 06:43:16;;;;;;;1.77;0.70;;;10.50;72.30;;;;;;5095126;28;20196;-66
2024/03/16 06:45:44;;;;;;;2.17;0.82;;;10.70;71.90;;;;;;5096083;28;20623;-66
2024/03/16 06:48:11;;;;;;;2.33;1.17;;;10.80;72.10;;;;;;5098439;28;20204;-66
2024/03/16 06:50:38;;;;;;;2.43;1.30;;;11.00;69.90;;;;;;5098791;28;20189;-66
2024/03/16 06:53:06;;;;;;;2.30;1.00;;;11.20;69.90;;;;;;5098894;28;20463;-66
2024/03/16 06:55:33;;;;;;;2.00;0.90;;;11.30;70.30;;;;;;5098633;28;20460;-67
2024/03/16 06:58:00;;;;;;;1.70;0.60;;;11.50;69.40;;;;;;5098663;28;20434;-66
2024/03/16 07:00:28;;;;;;;1.90;0.70;;;11.80;69.50;;;;;;5098222;28;20991;-66
2024/03/16 07:02:55;;;;;;;1.80;0.75;;;11.90;68.60;;;;;;5098564;28;20426;-66
2024/03/16 07:05:22;;;;;;;2.00;1.00;;;12.20;68.30;;;;;;5098681;28;20191;-67
2024/03/16 07:07:49;;;;;;;2.20;1.10;;;12.50;67.90;;;;;;5098049;28;20430;-66
2024/03/16 07:10:16;;;;;;;2.37;0.90;;;12.80;67.10;;;;;;5097929;28;20430;-66
2024/03/16 07:12:43;;;;;;;1.70;0.70;;;13.20;66.10;;;;;;5098323;28;20826;-66
2024/03/16 07:15:12;;;;;;;2.23;0.90;;;13.50;65.40;;;;;;5098279;28;20430;-67
2024/03/16 07:17:39;;;;;;;2.40;0.80;;;14.00;65.20;;;;;;5098251;28;20430;-66
2024/03/16 07:20:10;;;;;;;2.10;0.80;;;14.50;62.80;;;;;;5082947;28;20546;-67
2024/03/16 07:22:38;;;;;;;1.80;0.80;;;15.10;61.40;;;;;;5079065;28;20515;-66
2024/03/16 07:25:05;;;;;;;2.20;0.70;;;15.60;57.70;;;;;;5077368;28;20985;-67
2024/03/16 07:27:33;;;;;;;3.30;0.90;;;15.60;56.30;;;;;;5077742;28;20474;-67
2024/03/16 07:30:00;;;;;;;1.80;0.60;;;15.40;54.40;;;;;;5077768;28;20825;-66
2024/03/16 07:32:27;;;;;;;1.90;0.63;;;15.10;55.40;;;;;;5077353;28;20431;-66
2024/03/16 07:34:54;;;;;;;4.77;0.70;;;14.90;55.40;;;;;;5077340;28;20480;-67
2024/03/16 07:37:21;;;;;;;3.13;0.80;;;14.80;56.20;;;;;;5077663;28;20769;-67
2024/03/16 07:39:48;;;;;;;3.70;0.60;;;15.00;59.00;;;;;;5077519;28;20489;-67
2024/03/16 07:42:15;;;;;;;1.97;0.60;;;16.00;56.90;;;;;;5077340;28;20512;-67
2024/03/16 07:44:42;;;;;;;1.93;0.80;;;16.80;53.90;;;;;;5077532;28;20486;-67
2024/03/16 07:47:11;;;;;;;1.90;0.60;;;16.90;51.10;;;;;;5077237;28;20437;-67
2024/03/16 07:49:38;;;;;;;1.70;0.50;;;16.70;50.90;;;;;;5077509;28;20465;-67
2024/03/16 07:52:05;;;;;;;2.10;0.70;;;16.40;51.40;;;;;;5076927;28;20438;-67
2024/03/16 07:54:32;;;;;;;2.33;0.50;;;16.20;51.10;;;;;;5076887;28;20465;-67
2024/03/16 07:57:00;;;;;;;1.80;0.53;;;16.00;52.10;;;;;;5076805;28;20786;-67
2024/03/16 07:59:27;;;;;;;2.83;0.60;;;15.90;52.80;;;;;;5077290;28;20442;-67
2024/03/16 08:01:54;;;;;;;1.80;0.60;;;15.80;52.00;;;;;;5076724;28;21012;-66
2024/03/16 08:04:21;;;;;;;2.50;1.10;;;15.70;52.50;;;;;;5076743;28;21117;-67
2024/03/16 08:06:48;;;;;;;1.73;0.60;;;15.50;52.50;;;;;;5076886;28;20440;-67
2024/03/16 08:09:15;;;;;;;2.00;0.50;;;15.40;52.80;;;;;;5076471;28;21020;-67
2024/03/16 08:11:42;;;;;;;2.20;0.90;;;15.40;53.50;;;;;;5076752;28;20890;-67
2024/03/16 08:14:11;;;;;;;1.83;0.67;;;15.40;53.90;;;;;;5076753;28;20506;-67
2024/03/16 08:16:38;;;;;;;2.73;0.70;;;15.60;53.40;;;;;;5076644;28;20435;-67
2024/03/16 08:19:05;;;;;;;1.70;0.60;;;15.80;53.00;;;;;;5079369;28;20540;-67
2024/03/16 08:21:32;;;;;;;1.80;0.70;;;16.10;52.90;;;;;;5093511;28;20515;-67
2024/03/16 08:24:00;;;;;;;2.20;0.83;;;16.90;53.50;;;;;;5093331;28;20438;-67
2024/03/16 08:26:28;;;;;;;2.07;0.50;;;17.90;50.70;;;;;;5092918;28;20779;-68
2024/03/16 08:28:55;;;;;;;2.77;0.80;;;19.20;48.90;;;;;;5093511;28;20458;-70
2024/03/16 08:31:22;;;;;;;2.97;0.70;;;19.90;45.30;;;;;;5093378;28;20510;-67
2024/03/16 08:33:49;;;;;;;3.50;0.87;;;20.00;43.10;;;;;;5093438;28;20794;-67
2024/03/16 08:36:16;;;;;;;2.43;0.70;;;19.70;42.60;;;;;;5093213;28;20423;-67
2024/03/16 08:38:43;;;;;;;2.53;0.70;;;19.30;42.60;;;;;;5092861;28;20528;-67
2024/03/16 08:41:10;;;;;;;2.23;0.77;;;18.90;42.80;;;;;;5093061;28;20430;-67
2024/03/16 08:43:37;;;;;;;2.83;1.00;;;19.00;43.80;;;;;;5092814;28;20435;-67
2024/03/16 08:46:06;;;;;;;3.17;0.70;;;19.00;43.70;;;;;;5093389;28;20466;-67
2024/03/16 08:48:33;;;;;;;3.03;0.70;;;19.00;44.50;;;;;;5092905;28;20462;-67
2024/03/16 08:51:00;;;;;;;2.97;0.73;;;19.20;43.90;;;;;;5092464;28;20431;-67
2024/03/16 08:53:27;;;;;;;2.47;0.70;;;19.10;43.50;;;;;;5092669;28;20457;-67
2024/03/16 08:55:56;;;;;;;1.80;0.60;;;18.90;42.40;;;;;;5092864;28;20438;-67
2024/03/16 08:58:24;;;;;;;3.77;0.70;;;18.60;43.40;;;;;;5092813;28;20431;-67
2024/03/16 09:00:52;;;;;;;2.63;0.60;;;18.50;44.10;;;;;;5092649;28;20435;-67
2024/03/16 09:03:19;;;;;;;2.30;0.70;;;18.80;44.60;;;;;;5092732;28;20427;-68
2024/03/16 09:05:47;;;;;;;3.60;1.00;;;19.70;45.30;;;;;;5075868;28;20442;-67
2024/03/16 09:08:13;;;;;;;1.77;0.50;;;20.80;42.00;;;;;;5091891;28;20488;-68
2024/03/16 09:10:40;;;;;;;2.50;0.77;;;21.60;41.10;;;;;;5092725;28;20431;-68
2024/03/16 09:13:07;;;;;;;2.67;0.70;;;21.90;39.80;;;;;;5092276;28;20442;-67
2024/03/16 09:15:34;;;;;;;2.83;0.83;;;21.70;37.60;;;;;;5092339;28;20427;-68
2024/03/16 09:18:03;;;;;;;2.50;0.60;;;21.30;37.20;;;;;;5092626;28;20434;-67
2024/03/16 09:20:30;;;;;;;2.20;0.60;;;20.90;38.80;;;;;;5092054;28;20471;-67
2024/03/16 09:22:59;;;;;;;3.93;0.73;;;20.60;37.70;;;;;;5092388;28;20455;-67
2024/03/16 09:25:26;;;;;;;3.10;0.67;;;20.20;37.80;;;;;;5092388;28;20430;-67
2024/03/16 09:27:53;;;;;;;3.10;0.87;;;20.20;39.70;;;;;;5091927;28;20463;-67
2024/03/16 09:30:20;;;;;;;2.70;1.00;;;20.50;38.70;;;;;;5092180;28;20498;-67
2024/03/16 09:32:47;;;;;;;2.90;0.67;;;20.50;38.00;;;;;;5092068;28;20489;-67
2024/03/16 09:35:14;;;;;;;2.30;0.60;;;20.50;38.30;;;;;;5092241;28;20423;-67
2024/03/16 09:37:41;;;;;;;2.43;0.77;;;20.60;37.40;;;;;;5092175;28;20427;-67
2024/03/16 09:40:09;;;;;;;3.97;0.70;;;20.50;37.10;;;;;;5092418;28;20435;-67
2024/03/16 09:42:40;;;;;;;3.70;0.60;;;20.30;37.00;;;;;;5091731;28;20847;-67
2024/03/16 09:45:09;;;;;;;3.80;0.87;;;20.20;37.10;;;;;;5091813;28;20878;-67
2024/03/16 09:47:36;;;;;;;3.20;0.70;;;20.10;38.70;;;;;;5092178;28;20534;-67
2024/03/16 09:50:06;;;;;;;2.67;0.87;;;20.00;38.60;;;;;;5092079;28;20459;-67
2024/03/16 09:52:33;;;;;;;2.67;0.67;;;19.90;37.70;;;;;;5075420;28;20445;-67
2024/03/16 09:55:00;;;;;;;2.73;0.90;;;19.60;37.50;;;;;;5092094;28;20501;-67
2024/03/16 09:57:29;;;;;;;3.27;1.10;;;19.30;38.20;;;;;;5092110;28;20455;-67
2024/03/16 09:59:56;;;;;;;2.73;0.60;;;19.00;38.90;;;;;;5091723;28;20449;-67
2024/03/16 10:02:24;;;;;;;2.07;0.67;;;18.80;39.60;;;;;;5091636;28;20434;-67
2024/03/16 10:04:51;;;;;;;7.60;0.97;;;18.60;39.20;;;;;;5092354;28;20450;-67
2024/03/16 10:07:18;;;;;;;1.90;0.60;;;18.30;39.30;;;;;;5091988;28;20423;-67
2024/03/16 10:09:52;;;;;;;2.20;0.70;;;18.10;39.90;;;;;;5091923;28;20494;-67
2024/03/16 10:12:20;;;;;;;4.27;1.00;;;17.90;40.80;;;;;;5091576;28;20451;-67
2024/03/16 10:15:00;;;;;;;2.73;0.90;;;17.60;42.40;;;;;;5092160;28;20431;-67
2024/03/16 10:17:29;;;;;;;2.30;1.00;;;17.30;43.90;;;;;;5091946;28;20469;-67
2024/03/16 10:19:57;;;;;;;2.00;0.70;;;17.00;43.70;;;;;;5096152;28;20883;-67
2024/03/16 10:22:25;;;;;;;3.67;0.90;;;16.70;44.60;;;;;;5100151;28;20529;-67
2024/03/16 10:24:52;;;;;;;2.10;0.90;;;16.50;45.50;;;;;;5099307;28;20444;-67
2024/03/16 10:27:19;;;;;;;2.40;0.80;;;16.30;45.90;;;;;;5099057;28;20459;-68
2024/03/16 10:29:47;;;;;;;3.50;0.90;;;16.20;46.90;;;;;;5099028;28;20802;-67
2024/03/16 10:32:14;;;;;;;3.33;0.97;;;16.10;47.50;;;;;;5098912;28;20432;-67
2024/03/16 10:34:41;;;;;;;2.53;0.70;;;16.10;47.40;;;;;;5098823;28;21015;-67
2024/03/16 10:37:08;;;;;;;2.57;0.80;;;16.00;47.30;;;;;;5099014;28;20846;-67
2024/03/16 10:39:35;;;;;;;2.00;0.90;;;15.90;48.40;;;;;;5098943;28;20501;-67
2024/03/16 10:42:04;;;;;;;2.00;0.63;;;16.00;47.90;;;;;;5098988;28;20513;-67
2024/03/16 10:44:31;;;;;;;2.30;1.00;;;16.10;48.20;;;;;;5098885;28;20485;-67
2024/03/16 10:46:58;;;;;;;4.83;0.93;;;16.10;47.30;;;;;;5098964;28;20464;-67
2024/03/16 10:49:26;;;;;;;4.13;0.80;;;16.10;47.90;;;;;;5098394;28;20816;-67
2024/03/16 10:51:53;;;;;;;1.67;0.50;;;16.10;48.50;;;;;;5098514;28;20511;-67
2024/03/16 10:54:20;;;;;;;2.27;0.80;;;16.10;48.30;;;;;;5098456;28;20489;-67
2024/03/16 10:56:47;;;;;;;1.70;0.50;;;16.20;48.50;;;;;;5098265;28;20479;-67
2024/03/16 10:59:31;;;;;;;1.90;0.60;;;16.40;48.20;;;;;;5098228;28;20471;-67
2024/03/16 11:01:58;;;;;;;1.93;0.50;;;16.80;48.40;;;;;;5098838;28;20414;-67
2024/03/16 11:04:25;;;;;;;3.17;0.60;;;17.10;46.10;;;;;;5098269;28;20429;-67
2024/03/16 11:06:54;;;;;;;1.70;0.50;;;17.20;45.50;;;;;;5098526;28;20491;-67
2024/03/16 11:09:22;;;;;;;1.80;0.67;;;17.10;45.40;;;;;;5098344;28;20480;-67
2024/03/16 11:11:50;;;;;;;1.87;0.60;;;17.00;45.50;;;;;;5098459;28;20432;-67
2024/03/16 11:14:17;;;;;;;1.70;0.53;;;17.00;45.60;;;;;;5097973;28;20445;-67
2024/03/16 11:16:46;;;;;;;2.00;0.60;;;16.90;46.00;;;;;;5097855;28;20430;-67
2024/03/16 11:19:17;;;;;;;2.10;0.60;;;16.90;46.20;;;;;;5098020;28;20532;-67
2024/03/16 11:21:47;;;;;;;1.80;0.63;;;16.90;45.50;;;;;;5098408;28;20457;-67
2024/03/16 11:24:14;;;;;;;2.87;0.60;;;16.90;45.50;;;;;;5097989;28;20437;-67
2024/03/16 11:26:43;;;;;;;2.50;0.77;;;17.10;45.80;;;;;;5098355;28;20491;-67
2024/03/16 11:29:15;;;;;;;2.00;0.60;;;17.60;44.90;;;;;;5100223;28;20491;-67
2024/03/16 11:31:44;;;;;;;2.00;0.70;;;18.20;44.40;;;;;;5097218;28;20912;-67
2024/03/16 11:34:11;;;;;;;1.83;0.60;;;19.00;43.50;;;;;;5098464;28;20434;-67
2024/03/16 11:36:41;;;;;;;4.13;1.07;;;19.90;42.60;;;;;;5097746;28;20430;-68
2024/03/16 11:39:16;;;;;;;2.23;0.80;;;21.10;42.50;;;;;;5097917;28;20501;-68
2024/03/16 11:41:43;;;;;;;2.97;0.77;;;22.30;39.50;;;;;;5098794;28;20426;-68
2024/03/16 11:44:12;;;;;;;3.67;1.40;;;23.20;37.50;;;;;;5097457;28;20438;-68
2024/03/16 11:46:40;;;;;;;2.67;1.03;;;24.00;38.00;;;;;;5097421;28;20433;-66
2024/03/16 11:49:09;;;;;;;1.80;0.60;;;24.80;34.20;;;;;;5097276;28;20916;-66
2024/03/16 11:51:36;;;;;;;1.97;0.70;;;24.70;32.60;;;;;;5097853;28;20762;-66
2024/03/16 11:54:03;;;;;;;4.27;1.07;;;24.50;31.80;;;;;;5097265;28;20993;-66
2024/03/16 11:56:30;;;;;;;2.40;0.73;;;24.20;30.80;;;;;;5097256;28;20888;-67
2024/03/16 11:58:57;;;;;;;2.20;0.70;;;23.90;31.30;;;;;;5097549;28;20434;-67
2024/03/16 12:01:24;;;;;;;2.20;0.70;;;23.60;31.40;;;;;;5097352;28;20499;-66
2024/03/16 12:03:51;;;;;;;4.47;1.17;;;23.10;31.70;;;;;;5097421;28;20430;-67
2024/03/16 12:06:18;;;;;;;2.93;0.80;;;22.50;32.80;;;;;;5096948;28;20441;-66
2024/03/16 12:08:45;;;;;;;2.50;0.77;;;22.30;33.00;;;;;;5097212;28;20843;-66
2024/03/16 12:11:12;;;;;;;2.00;0.60;;;22.10;32.90;;;;;;5096756;28;20545;-66
2024/03/16 12:13:38;;;;;;;3.10;1.03;;;21.80;33.60;;;;;;5097229;28;20430;-67
2024/03/16 12:16:05;;;;;;;4.57;0.70;;;21.50;33.30;;;;;;5097187;28;20434;-67
2024/03/16 12:18:31;;;;;;;4.13;0.60;;;21.10;33.90;;;;;;5097154;28;20430;-67
2024/03/16 12:20:59;;;;;;;1.80;0.50;;;20.80;35.10;;;;;;5096923;28;20429;-67
2024/03/16 12:23:28;;;;;;;2.07;0.57;;;21.10;36.30;;;;;;5097221;28;20479;-67
2024/03/16 12:25:55;;;;;;;1.70;0.53;;;21.80;36.00;;;;;;5097518;28;20487;-67
2024/03/16 12:28:21;;;;;;;2.70;1.13;;;22.50;34.20;;;;;;5097058;28;20529;-67
2024/03/16 12:30:48;;;;;;;2.40;0.80;;;23.00;34.60;;;;;;5097472;28;20465;-68
2024/03/16 12:33:14;;;;;;;1.93;0.73;;;23.50;33.50;;;;;;5096821;28;20920;-68
2024/03/16 12:35:41;;;;;;;2.10;0.67;;;24.00;32.80;;;;;;5096963;28;20435;-68
2024/03/16 12:38:08;;;;;;;2.30;0.67;;;24.40;31.20;;;;;;5097070;28;20913;-68
2024/03/16 12:40:35;;;;;;;2.70;0.70;;;24.70;30.40;;;;;;5097162;28;20430;-68
2024/03/16 12:43:01;;;;;;;2.00;0.70;;;24.70;29.80;;;;;;5096147;28;20430;-68
2024/03/16 12:45:29;;;;;;;2.50;1.00;;;24.90;32.10;;;;;;5096620;28;20434;-68
2024/03/16 12:47:55;;;;;;;2.00;0.60;;;25.30;30.70;;;;;;5096842;28;20434;-68
2024/03/16 12:50:22;;;;;;;2.00;0.60;;;25.70;29.90;;;;;;5096723;28;20466;-68